Time;durP1;ratioP1;P1;durP2;ratioP2;P2;SDS_P1;SDS_P2;PMS_P1;PMS_P2;Temp;Humidity;BMP_temperature;BMP_pressure;BME280_temperature;BME280_humidity;BME280_pressure;Samples;Min_cycle;Max_cycle;Signal;HPM_P1;HPM_P2
2021/12/03 00:01:39;;;;;;;16.60;5.40;;;;;;;8.19;81.70;98580.29;24432;1362;3051722;-71
2021/12/03 00:04:09;;;;;;;12.40;5.20;;;;;;;8.38;80.64;98578.67;24374;1362;3026398;-67
2021/12/03 00:06:38;;;;;;;22.20;6.50;;;;;;;8.21;81.24;98584.67;24386;1360;3028292;-74
2021/12/03 00:09:07;;;;;;;17.80;6.10;;;;;;;8.11;81.69;98574.70;24421;1364;3054861;-68
2021/12/03 00:11:36;;;;;;;18.40;6.30;;;;;;;7.87;82.68;98566.11;24433;1362;3027450;-72
2021/12/03 00:14:06;;;;;;;19.00;5.80;;;;;;;7.81;83.12;98567.40;24464;1363;3052898;-75
2021/12/03 00:16:36;;;;;;;19.00;7.00;;;;;;;8.14;81.89;98561.78;24359;1364;3026312;-69
2021/12/03 00:19:05;;;;;;;20.30;6.60;;;;;;;8.43;80.91;98561.29;24416;1364;3026824;-76
2021/12/03 00:21:34;;;;;;;18.10;6.90;;;;;;;8.35;80.85;98556.05;24445;1363;3053957;-71
2021/12/03 00:24:03;;;;;;;28.30;8.60;;;;;;;7.92;82.44;98561.95;24437;1364;3027910;-69
2021/12/03 00:26:32;;;;;;;15.50;6.20;;;;;;;7.82;83.38;98557.34;24415;1363;3052130;-71
2021/12/03 00:29:01;;;;;;;15.90;5.40;;;;;;;8.11;82.40;98554.67;24423;1359;3028812;-74
2021/12/03 00:31:31;;;;;;;10.80;4.60;;;;;;;8.34;81.25;98552.66;24378;1364;3071155;-74
2021/12/03 00:33:59;;;;;;;16.00;6.10;;;;;;;8.19;81.39;98554.12;24454;1363;3028808;-72
2021/12/03 00:36:29;;;;;;;16.30;6.20;;;;;;;8.06;82.00;98556.03;24436;1358;3050349;-76
2021/12/03 00:38:59;;;;;;;16.60;5.70;;;;;;;7.83;83.12;98552.08;24410;1361;3027055;-74
2021/12/03 00:41:45;;;;;;;15.70;6.50;;;;;;;8.13;82.40;98554.00;24405;1364;3027247;-72
2021/12/03 00:44:14;;;;;;;22.10;5.80;;;;;;;8.22;81.50;98551.45;24446;1363;3050880;-71
2021/12/03 00:46:43;;;;;;;19.10;5.50;;;;;;;8.18;81.68;98553.48;24400;1366;3027461;-71
2021/12/03 00:49:12;;;;;;;14.80;5.80;;;;;;;8.10;81.78;98553.30;24440;1361;3048906;-70
2021/12/03 00:51:41;;;;;;;13.10;5.00;;;;;;;7.95;82.67;98553.20;24450;1363;3026645;-73
2021/12/03 00:54:10;;;;;;;21.00;5.10;;;;;;;8.22;81.55;98564.44;24444;1363;3068414;-68
2021/12/03 00:56:39;;;;;;;14.10;4.70;;;;;;;8.36;81.03;98566.30;24392;1359;3028370;-67
2021/12/03 00:59:09;;;;;;;17.00;4.90;;;;;;;8.24;81.38;98561.85;24430;1363;3050772;-74
2021/12/03 01:01:38;;;;;;;20.70;5.80;;;;;;;8.00;82.23;98569.81;24406;1366;3026297;-70
2021/12/03 01:04:07;;;;;;;17.40;5.60;;;;;;;7.95;82.46;98565.80;24396;1360;3026753;-73
2021/12/03 01:06:36;;;;;;;15.00;4.10;;;;;;;7.96;82.76;98556.63;24427;1364;3028272;-71
2021/12/03 01:09:05;;;;;;;15.70;4.70;;;;;;;8.27;81.59;98552.73;24440;1362;3066841;-75
2021/12/03 01:11:34;;;;;;;13.10;4.80;;;;;;;8.43;80.69;98547.30;24414;1363;3027294;-72
2021/12/03 01:14:04;;;;;;;13.10;4.90;;;;;;;8.28;80.92;98553.38;24414;1360;3053596;-67
2021/12/03 01:16:33;;;;;;;17.80;4.90;;;;;;;8.26;81.26;98548.64;24452;1360;3026229;-72
2021/12/03 01:19:02;;;;;;;13.40;4.40;;;;;;;7.98;82.12;98555.86;24412;1359;3026889;-65
2021/12/03 01:21:32;;;;;;;20.40;5.00;;;;;;;7.87;83.10;98564.91;24398;1359;3053944;-72
2021/12/03 01:24:01;;;;;;;12.70;4.80;;;;;;;8.36;81.63;98550.55;24408;1363;3026561;-70
2021/12/03 01:26:30;;;;;;;15.50;4.90;;;;;;;8.11;81.97;98558.98;24399;1363;3052847;-71
2021/12/03 01:28:59;;;;;;;13.90;5.70;;;;;;;7.92;82.80;98560.23;24390;1360;3026582;-68
2021/12/03 01:31:29;;;;;;;12.30;4.70;;;;;;;7.75;83.70;98560.61;24408;1363;3026744;-74
2021/12/03 01:33:57;;;;;;;12.30;5.00;;;;;;;7.76;83.97;98559.86;24421;1360;3029137;-68
2021/12/03 01:36:26;;;;;;;17.00;5.10;;;;;;;8.20;82.01;98554.73;24479;1360;3053394;-69
2021/12/03 01:38:55;;;;;;;18.00;6.10;;;;;;;8.30;81.36;98559.85;24471;1363;3026514;-71
2021/12/03 01:41:27;;;;;;;18.00;6.10;;;;;;;8.04;82.39;98566.44;24468;1362;3052391;-72
2021/12/03 01:44:01;;;;;;;16.70;5.90;;;;;;;7.89;82.94;98573.67;24444;1359;3027389;-72
2021/12/03 01:46:31;;;;;;;14.70;5.20;;;;;;;7.83;83.40;98572.46;24411;1358;3068406;-70
2021/12/03 01:49:00;;;;;;;13.80;5.80;;;;;;;8.31;81.73;98565.08;24473;1363;3026562;-71
2021/12/03 01:51:29;;;;;;;14.40;6.80;;;;;;;8.28;81.26;98571.48;24429;1362;3026907;-73
2021/12/03 01:53:58;;;;;;;18.60;6.40;;;;;;;8.31;81.21;98574.09;24500;1359;3071066;-73
2021/12/03 01:56:27;;;;;;;21.60;8.10;;;;;;;8.19;81.77;98568.80;24452;1360;3029642;-74
2021/12/03 01:58:56;;;;;;;19.00;7.30;;;;;;;8.08;82.28;98568.80;24448;1359;3054001;-68
2021/12/03 02:01:27;;;;;;;29.80;11.80;;;;;;;8.46;81.39;98571.41;24399;1360;3026518;-73
2021/12/03 02:03:57;;;;;;;34.00;12.10;;;;;;;8.62;80.35;98571.59;24391;1365;3052950;-70
2021/12/03 02:06:28;;;;;;;30.90;10.50;;;;;;;8.57;80.12;98570.66;24482;1360;3027194;-72
2021/12/03 02:08:57;;;;;;;29.20;11.70;;;;;;;8.14;81.74;98580.43;24418;1363;3026376;-69
2021/12/03 02:11:26;;;;;;;30.10;11.80;;;;;;;8.02;82.29;98585.55;24362;1365;3026731;-74
2021/12/03 02:13:56;;;;;;;25.20;9.60;;;;;;;7.88;83.14;98590.95;24384;1365;3053503;-73
2021/12/03 02:16:25;;;;;;;27.20;10.60;;;;;;;8.33;81.56;98582.90;24385;1360;3026203;-73
2021/12/03 02:18:54;;;;;;;21.30;9.90;;;;;;;8.41;80.90;98585.15;24427;1362;3052064;-76
2021/12/03 02:21:23;;;;;;;24.50;9.60;;;;;;;8.32;80.97;98583.96;24408;1360;3026757;-66
2021/12/03 02:23:53;;;;;;;30.50;11.70;;;;;;;8.23;81.28;98590.15;24368;1360;3026466;-74
2021/12/03 02:26:22;;;;;;;21.00;7.70;;;;;;;8.00;82.06;98583.27;24454;1360;3026761;-69
2021/12/03 02:28:51;;;;;;;21.30;8.10;;;;;;;8.13;81.65;98587.45;24434;1359;3026429;-72
2021/12/03 02:31:21;;;;;;;24.40;9.90;;;;;;;8.31;80.84;98584.91;24425;1355;3070979;-72
2021/12/03 02:33:51;;;;;;;30.70;10.60;;;;;;;8.17;81.19;98585.98;24384;1353;3026353;-75
2021/12/03 02:36:20;;;;;;;32.80;11.40;;;;;;;7.98;81.86;98587.53;24450;1362;3026826;-74
2021/12/03 02:38:49;;;;;;;14.60;4.90;;;;;;;7.97;82.12;98579.59;24423;1358;3026885;-76
2021/12/03 02:41:20;;;;;;;11.60;5.60;;;;;;;8.34;81.00;98581.59;24419;1366;3050657;-69
2021/12/03 02:43:49;;;;;;;11.80;5.70;;;;;;;8.49;80.11;98581.66;24480;1363;3026976;-72
2021/12/03 02:46:18;;;;;;;14.80;5.10;;;;;;;8.47;79.94;98579.89;24427;1359;3070571;-74
2021/12/03 02:48:47;;;;;;;14.90;5.20;;;;;;;8.28;80.46;98579.02;24450;1363;3028133;-73
2021/12/03 02:51:16;;;;;;;13.60;5.70;;;;;;;8.07;81.21;98587.53;24376;1362;3026645;-71
2021/12/03 02:53:45;;;;;;;10.60;4.40;;;;;;;7.86;82.20;98587.95;24401;1363;3070683;-71
2021/12/03 02:56:14;;;;;;;10.20;4.00;;;;;;;8.27;81.19;98582.75;24415;1359;3026360;-72
2021/12/03 02:58:43;;;;;;;11.80;5.00;;;;;;;8.52;79.78;98584.27;24449;1360;3053799;-73
2021/12/03 03:01:13;;;;;;;14.20;5.00;;;;;;;8.35;80.34;98584.13;24409;1359;3027385;-68
2021/12/03 03:03:42;;;;;;;16.70;5.20;;;;;;;8.15;81.29;98592.09;24416;1360;3026558;-71
2021/12/03 03:06:11;;;;;;;12.20;5.10;;;;;;;8.08;81.61;98591.46;24398;1363;3050655;-73
2021/12/03 03:08:41;;;;;;;13.00;4.60;;;;;;;7.81;82.95;98595.61;24382;1359;3026560;-70
2021/12/03 03:11:11;;;;;;;14.20;4.50;;;;;;;8.25;81.60;98585.15;24412;1363;3052030;-70
2021/12/03 03:13:41;;;;;;;10.10;4.60;;;;;;;8.40;80.88;98584.85;24435;1359;3027744;-68
2021/12/03 03:16:10;;;;;;;13.50;5.30;;;;;;;8.09;81.62;98588.40;24388;1365;3053148;-74
2021/12/03 03:18:39;;;;;;;17.20;6.10;;;;;;;8.08;81.94;98593.38;24433;1360;3026908;-68
2021/12/03 03:21:09;;;;;;;14.20;5.10;;;;;;;7.81;83.03;98598.95;24395;1359;3027068;-69
2021/12/03 03:23:38;;;;;;;13.70;4.90;;;;;;;7.71;83.94;98601.80;24182;1361;3369757;-73
2021/12/03 03:26:07;;;;;;;13.80;4.50;;;;;;;8.30;82.10;98607.66;24428;1364;3027039;-75
2021/12/03 03:28:36;;;;;;;14.40;5.10;;;;;;;8.39;81.06;98606.23;24413;1355;3026144;-73
2021/12/03 03:31:05;;;;;;;12.30;4.90;;;;;;;8.32;81.49;98604.24;24362;1363;3052055;-71
2021/12/03 03:33:35;;;;;;;19.20;6.00;;;;;;;8.43;80.57;98601.05;24422;1358;3027223;-75
2021/12/03 03:36:04;;;;;;;16.90;5.30;;;;;;;8.19;81.59;98603.85;24459;1360;3028706;-70
2021/12/03 03:38:35;;;;;;;21.70;5.50;;;;;;;8.03;82.43;98606.92;24420;1363;3050506;-72
2021/12/03 03:41:04;;;;;;;15.70;5.30;;;;;;;8.36;81.47;98612.88;24422;1363;3026479;-73
2021/12/03 03:43:34;;;;;;;19.40;5.20;;;;;;;8.57;80.00;98609.98;24403;1359;3026613;-73
2021/12/03 03:46:03;;;;;;;14.80;5.40;;;;;;;8.50;80.32;98611.10;24367;1360;3027805;-68
2021/12/03 03:48:31;;;;;;;20.10;5.80;;;;;;;8.28;80.80;98617.04;24450;1360;3051688;-74
2021/12/03 03:51:00;;;;;;;13.30;5.20;;;;;;;8.26;81.01;98617.00;24408;1360;3026925;-70
2021/12/03 03:53:29;;;;;;;19.90;5.00;;;;;;;8.02;81.79;98623.42;24416;1362;3053888;-72
2021/12/03 03:55:59;;;;;;;17.20;4.50;;;;;;;8.22;81.35;98628.77;24422;1353;3026824;-70
2021/12/03 03:58:28;;;;;;;15.80;5.20;;;;;;;8.26;81.13;98627.14;24447;1353;3056171;-71
2021/12/03 04:00:57;;;;;;;15.60;5.30;;;;;;;8.01;81.81;98632.58;24425;1363;3026306;-72
2021/12/03 04:03:26;;;;;;;15.30;5.50;;;;;;;7.87;82.60;98626.63;24398;1354;3052403;-72
2021/12/03 04:05:55;;;;;;;15.20;6.30;;;;;;;7.74;83.12;98628.80;24422;1359;3026606;-71
2021/12/03 04:08:24;;;;;;;16.00;4.80;;;;;;;7.82;83.01;98631.45;24415;1360;3052698;-67
2021/12/03 04:10:54;;;;;;;13.20;5.00;;;;;;;8.09;82.23;98622.64;24403;1361;3026777;-73
2021/12/03 04:13:23;;;;;;;18.90;5.60;;;;;;;8.31;81.18;98618.96;24470;1360;3026416;-76
2021/12/03 04:15:53;;;;;;;14.30;5.90;;;;;;;8.22;81.28;98617.61;24429;1363;3026618;-73
2021/12/03 04:18:22;;;;;;;18.00;5.70;;;;;;;8.04;82.00;98615.65;24416;1364;3026599;-74
2021/12/03 04:20:51;;;;;;;18.10;5.40;;;;;;;7.86;82.71;98625.11;24424;1360;3058089;-71
2021/12/03 04:23:20;;;;;;;13.90;5.50;;;;;;;7.85;83.03;98623.10;24428;1360;3026632;-76
2021/12/03 04:25:50;;;;;;;16.60;6.10;;;;;;;8.16;81.90;98620.80;24375;1363;3055100;-68
2021/12/03 04:28:19;;;;;;;17.60;5.20;;;;;;;8.45;80.41;98620.50;24400;1359;3028127;-74
2021/12/03 04:30:49;;;;;;;21.20;6.00;;;;;;;8.29;80.78;98619.04;24409;1361;3030048;-73
2021/12/03 04:33:18;;;;;;;19.60;6.10;;;;;;;8.13;81.27;98617.11;24387;1360;3028092;-73
2021/12/03 04:35:47;;;;;;;12.20;5.30;;;;;;;8.15;81.48;98615.45;24441;1358;3037873;-67
2021/12/03 04:38:16;;;;;;;14.40;4.60;;;;;;;7.97;82.19;98623.73;24393;1360;3051953;-70
2021/12/03 04:40:46;;;;;;;15.30;4.30;;;;;;;8.24;81.81;98615.95;24470;1361;3026618;-68
2021/12/03 04:43:15;;;;;;;16.30;5.40;;;;;;;8.54;80.28;98617.50;24450;1362;3058462;-72
2021/12/03 04:46:25;;;;;;;13.90;5.20;;;;;;;8.20;81.25;98628.38;30819;1361;3026587;-70
2021/12/03 04:48:54;;;;;;;19.30;7.50;;;;;;;8.40;80.97;98627.64;24393;1361;3026817;-70
2021/12/03 04:51:23;;;;;;;14.80;5.60;;;;;;;8.40;80.42;98629.38;24426;1361;3026176;-74
2021/12/03 04:53:52;;;;;;;10.50;4.10;;;;;;;8.18;81.94;98630.77;24397;1364;3048653;-72
2021/12/03 04:56:21;;;;;;;19.10;5.40;;;;;;;8.43;81.22;98634.08;24396;1361;3029655;-71
2021/12/03 04:58:49;;;;;;;16.60;6.20;;;;;;;8.40;81.20;98635.13;24310;1361;3070477;-71
2021/12/03 05:01:19;;;;;;;22.20;5.90;;;;;;;8.18;81.79;98633.37;24464;1359;3026637;-70
2021/12/03 05:03:48;;;;;;;18.00;7.70;;;;;;;8.09;82.03;98627.52;24455;1357;3053496;-74
2021/12/03 05:06:28;;;;;;;18.40;6.60;;;;;;;7.95;82.60;98629.61;24462;1354;3029833;-74
2021/12/03 05:08:58;;;;;;;19.40;5.90;;;;;;;7.89;82.84;98632.27;24455;1354;3055565;-68
2021/12/03 05:11:27;;;;;;;21.20;6.50;;;;;;;8.08;82.20;98627.89;24489;1354;3026623;-76
2021/12/03 05:13:56;;;;;;;16.00;6.10;;;;;;;8.20;81.44;98629.22;24401;1362;3049459;-74
2021/12/03 05:16:24;;;;;;;12.00;5.50;;;;;;;7.97;82.38;98635.25;24437;1354;3026877;-69
2021/12/03 05:18:54;;;;;;;15.50;4.80;;;;;;;8.06;81.96;98630.33;24371;1357;3058765;-67
2021/12/03 05:21:36;;;;;;;15.80;5.60;;;;;;;7.78;83.01;98633.95;24438;1354;3053037;-74
2021/12/03 05:24:05;;;;;;;15.30;6.00;;;;;;;7.62;83.59;98634.10;24456;1354;3026732;-66
2021/12/03 05:26:35;;;;;;;18.60;5.20;;;;;;;8.16;81.81;98629.29;24461;1357;3059242;-71
2021/12/03 05:29:05;;;;;;;13.20;5.10;;;;;;;8.59;80.03;98624.98;24418;1354;3026919;-77
2021/12/03 05:31:35;;;;;;;15.90;5.80;;;;;;;8.33;80.15;98624.23;24488;1357;3026483;-72
2021/12/03 05:34:04;;;;;;;22.70;6.00;;;;;;;8.22;80.75;98627.91;24442;1354;3027341;-75
2021/12/03 05:36:34;;;;;;;24.00;6.70;;;;;;;8.07;81.01;98629.92;24465;1360;3026607;-73
2021/12/03 05:39:03;;;;;;;19.30;4.70;;;;;;;7.76;82.00;98632.17;24514;1354;3026135;-74
2021/12/03 05:41:33;;;;;;;10.20;4.20;;;;;;;8.14;81.31;98632.25;24461;1361;3053037;-73
2021/12/03 05:44:03;;;;;;;17.60;4.30;;;;;;;8.24;80.11;98634.91;24469;1354;3027048;-72
2021/12/03 05:46:32;;;;;;;21.10;5.80;;;;;;;8.20;79.86;98637.82;24434;1355;3026019;-70
2021/12/03 05:49:02;;;;;;;13.80;3.60;;;;;;;8.02;80.28;98645.73;24464;1354;3028005;-68
2021/12/03 05:51:33;;;;;;;20.50;4.30;;;;;;;7.85;80.61;98646.29;24468;1354;3027334;-66
2021/12/03 05:54:02;;;;;;;13.30;3.00;;;;;;;7.64;81.47;98645.69;24422;1351;3026278;-67
2021/12/03 05:56:31;;;;;;;10.90;3.10;;;;;;;7.87;80.84;98654.69;24412;1355;3026249;-74
2021/12/03 05:59:00;;;;;;;9.20;3.00;;;;;;;8.03;79.84;98651.42;24448;1360;3026178;-69
2021/12/03 06:01:29;;;;;;;11.70;3.50;;;;;;;8.08;79.64;98649.91;24446;1355;3057582;-71
2021/12/03 06:03:57;;;;;;;13.60;3.90;;;;;;;8.04;79.56;98647.01;24422;1361;3027030;-75
2021/12/03 06:06:26;;;;;;;7.90;3.10;;;;;;;7.91;79.95;98647.50;24447;1354;3052385;-76
2021/12/03 06:08:58;;;;;;;9.90;3.20;;;;;;;7.86;80.00;98652.34;24390;1355;3026672;-74
2021/12/03 06:11:33;;;;;;;14.50;3.00;;;;;;;8.25;78.80;98651.60;24431;1360;3054599;-73
2021/12/03 06:14:02;;;;;;;8.50;2.40;;;;;;;8.48;77.55;98646.48;24432;1354;3028630;-73
2021/12/03 06:16:31;;;;;;;9.20;2.90;;;;;;;8.28;78.30;98645.98;24521;1355;3048674;-71
2021/12/03 06:19:00;;;;;;;7.70;2.60;;;;;;;8.10;78.69;98658.12;24433;1359;3026910;-72
2021/12/03 06:21:29;;;;;;;7.80;2.70;;;;;;;7.86;79.73;98654.23;24471;1351;3026616;-73
2021/12/03 06:23:58;;;;;;;8.00;2.90;;;;;;;7.90;79.41;98647.54;24394;1361;3048169;-70
2021/12/03 06:26:27;;;;;;;10.30;2.40;;;;;;;7.84;79.77;98645.83;24488;1357;3026882;-70
2021/12/03 06:28:56;;;;;;;9.10;2.60;;;;;;;8.03;79.24;98646.55;24390;1355;3071130;-73
2021/12/03 06:31:25;;;;;;;11.50;2.20;;;;;;;8.43;77.82;98639.45;24445;1354;3028151;-76
2021/12/03 06:33:54;;;;;;;5.90;3.10;;;;;;;8.34;77.88;98641.62;24451;1360;3053147;-71
2021/12/03 06:36:23;;;;;;;6.60;2.50;;;;;;;8.09;78.70;98644.09;24358;1360;3026709;-74
2021/12/03 06:38:52;;;;;;;10.20;2.80;;;;;;;8.00;79.16;98650.25;24443;1354;3053219;-72
2021/12/03 06:41:21;;;;;;;9.70;2.70;;;;;;;7.96;79.57;98641.23;24483;1355;3026487;-73
2021/12/03 06:43:51;;;;;;;10.60;2.20;;;;;;;8.33;78.70;98641.36;24473;1357;3049087;-74
2021/12/03 06:46:20;;;;;;;7.60;3.00;;;;;;;8.71;76.66;98642.70;24456;1354;3027407;-72
2021/12/03 06:48:50;;;;;;;8.10;2.60;;;;;;;8.47;77.37;98643.59;24401;1359;3026189;-75
2021/12/03 06:51:19;;;;;;;11.70;3.30;;;;;;;8.41;77.85;98647.48;24448;1361;3052158;-70
2021/12/03 06:53:58;;;;;;;11.10;3.30;;;;;;;8.34;78.06;98648.59;24425;1356;3027481;-73
2021/12/03 06:56:48;;;;;;;4.80;2.30;;;;;;;8.29;78.25;98649.06;24465;1359;3058772;-72
2021/12/03 06:59:17;;;;;;;8.60;2.00;;;;;;;8.18;78.81;98646.79;24443;1357;3051148;-77
2021/12/03 07:01:47;;;;;;;7.20;2.50;;;;;;;8.55;77.44;98647.80;24519;1354;3026193;-75
2021/12/03 07:04:16;;;;;;;7.40;2.30;;;;;;;8.53;76.85;98650.35;24432;1357;3026833;-69
2021/12/03 07:06:47;;;;;;;10.60;2.70;;;;;;;8.42;77.51;98648.63;24408;1355;3053135;-74
2021/12/03 07:09:16;;;;;;;7.70;2.50;;;;;;;8.37;77.74;98646.85;24450;1358;3029121;-73
2021/12/03 07:11:45;;;;;;;10.30;2.70;;;;;;;8.33;77.85;98650.19;24504;1356;3055405;-69
2021/12/03 07:14:14;;;;;;;6.30;2.20;;;;;;;8.33;77.97;98652.15;24389;1361;3026116;-70
2021/12/03 07:16:43;;;;;;;6.80;1.90;;;;;;;8.37;78.16;98656.76;24430;1354;3051925;-74
2021/12/03 07:19:12;;;;;;;7.90;2.50;;;;;;;9.04;75.66;98651.89;24428;1354;3029625;-73
2021/12/03 07:21:41;;;;;;;9.50;2.40;;;;;;;9.26;74.50;98647.41;24453;1354;3027012;-73
2021/12/03 07:24:10;;;;;;;8.60;2.90;;;;;;;9.11;74.70;98654.05;24610;1358;3051817;-72
2021/12/03 07:26:39;;;;;;;7.70;3.00;;;;;;;9.05;75.12;98653.41;24552;1358;3027226;-71
2021/12/03 07:29:08;;;;;;;8.90;2.90;;;;;;;8.94;74.88;98649.27;24494;1352;3051245;-72
2021/12/03 07:31:36;;;;;;;8.30;2.90;;;;;;;8.75;75.46;98647.35;24479;1362;3026766;-74
2021/12/03 07:34:06;;;;;;;5.70;2.30;;;;;;;8.65;75.79;98650.78;24410;1357;3049065;-70
2021/12/03 07:36:35;;;;;;;7.30;2.50;;;;;;;8.58;75.71;98648.98;24576;1357;3026361;-73
2021/12/03 07:39:04;;;;;;;11.20;2.90;;;;;;;8.90;74.57;98652.15;24463;1357;3067274;-71
2021/12/03 07:41:36;;;;;;;8.60;2.90;;;;;;;9.04;73.59;98649.81;24482;1357;3026165;-70
2021/12/03 07:44:05;;;;;;;8.90;3.10;;;;;;;9.15;73.14;98644.19;24448;1357;3052863;-71
2021/12/03 07:46:34;;;;;;;6.60;2.70;;;;;;;9.11;73.20;98654.08;24457;1352;3026659;-72
2021/12/03 07:49:04;;;;;;;7.80;2.50;;;;;;;9.00;73.49;98653.92;24473;1357;3026570;-72
2021/12/03 07:51:33;;;;;;;8.80;2.70;;;;;;;8.79;73.97;98662.09;24498;1360;3053018;-71
2021/12/03 07:54:02;;;;;;;4.90;2.50;;;;;;;8.77;74.15;98657.89;24429;1357;3026499;-71
2021/12/03 07:56:32;;;;;;;8.50;2.60;;;;;;;8.75;74.71;98657.83;24388;1362;3052884;-70
2021/12/03 07:59:01;;;;;;;12.10;3.00;;;;;;;9.30;72.84;98661.86;24528;1352;3030274;-71
2021/12/03 08:01:31;;;;;;;10.70;2.80;;;;;;;9.36;72.11;98649.38;24484;1356;3053026;-71
2021/12/03 08:04:00;;;;;;;6.90;2.60;;;;;;;9.34;71.77;98645.31;24546;1359;3028567;-72
2021/12/03 08:06:29;;;;;;;9.40;2.80;;;;;;;9.20;72.34;98644.52;24521;1352;3026066;-71
2021/12/03 08:08:58;;;;;;;6.20;2.60;;;;;;;8.85;73.20;98642.84;24465;1357;3049474;-69
2021/12/03 08:11:27;;;;;;;8.40;2.80;;;;;;;8.81;73.46;98644.50;24406;1355;3026498;-75
2021/12/03 08:14:09;;;;;;;7.80;2.60;;;;;;;8.68;73.91;98644.14;24468;1358;3053106;-72
2021/12/03 08:16:39;;;;;;;6.30;2.20;;;;;;;8.85;73.40;98635.73;24446;1358;3026467;-77
2021/12/03 08:19:08;;;;;;;12.00;2.50;;;;;;;9.25;72.08;98636.48;24460;1357;3026407;-74
2021/12/03 08:21:37;;;;;;;6.30;2.10;;;;;;;9.44;71.08;98632.04;24458;1361;3049633;-75
2021/12/03 08:24:07;;;;;;;5.60;2.30;;;;;;;9.43;70.85;98630.73;24430;1362;3026796;-71
2021/12/03 08:26:36;;;;;;;8.60;2.70;;;;;;;9.33;71.24;98635.06;24477;1362;3053174;-77
2021/12/03 08:29:05;;;;;;;8.60;2.50;;;;;;;9.31;71.35;98632.59;24452;1361;3026269;-73
2021/12/03 08:31:34;;;;;;;7.40;3.40;;;;;;;9.26;71.70;98631.73;24457;1355;3026942;-74
2021/12/03 08:34:03;;;;;;;8.50;2.50;;;;;;;9.26;71.55;98633.98;24451;1357;3026708;-72
2021/12/03 08:36:33;;;;;;;8.10;2.40;;;;;;;9.17;71.76;98632.16;24465;1355;3053655;-73
2021/12/03 08:39:02;;;;;;;9.00;2.70;;;;;;;8.93;72.46;98630.48;24468;1357;3027070;-70
2021/12/03 08:41:33;;;;;;;7.40;1.80;;;;;;;9.00;72.53;98619.66;24446;1357;3056088;-74
2021/12/03 08:44:03;;;;;;;5.90;2.50;;;;;;;9.53;70.65;98616.61;24461;1355;3027299;-72
2021/12/03 08:46:35;;;;;;;6.80;2.40;;;;;;;9.71;69.47;98621.11;24472;1358;3026520;-71
2021/12/03 08:57:24;;;;;;;7.70;2.70;;;;;;;9.33;70.82;98605.04;24351;1363;3055380;-71
2021/12/03 08:59:56;;;;;;;8.10;2.70;;;;;;;9.24;71.18;98606.53;24384;1364;3028652;-72
2021/12/03 09:02:25;;;;;;;8.80;3.00;;;;;;;9.17;71.39;98600.89;24431;1361;3029831;-71
2021/12/03 09:04:54;;;;;;;10.20;3.30;;;;;;;9.21;71.04;98602.16;24459;1352;3027563;-69
2021/12/03 09:07:23;;;;;;;6.70;2.60;;;;;;;9.21;71.28;98599.39;24478;1355;3048732;-72
2021/12/03 09:09:53;;;;;;;8.20;2.40;;;;;;;9.62;69.80;98599.54;24462;1355;3026565;-71
2021/12/03 09:12:41;;;;;;;7.10;2.60;;;;;;;10.10;67.82;98593.33;24419;1358;3056410;-75
2021/12/03 09:15:14;;;;;;;8.70;2.90;;;;;;;10.25;67.42;98590.47;24486;1359;3026460;-68
2021/12/03 09:17:58;;;;;;;6.70;2.90;;;;;;;10.22;67.52;98592.23;24438;1357;3054590;-71
2021/12/03 09:24:04;;;;;;;7.80;2.60;;;;;;;9.72;69.23;98591.29;24394;1359;3052580;-72
2021/12/03 09:26:12;;;;;;;8.20;2.90;;;;;;;9.58;69.43;98580.59;24391;1364;3055732;-72
2021/12/03 09:28:49;;;;;;;6.60;2.90;;;;;;;9.60;69.34;98576.26;24411;1355;3026913;-74
2021/12/03 09:31:19;;;;;;;9.20;2.70;;;;;;;9.56;69.68;98569.48;24442;1362;3071452;-74
2021/12/03 09:33:49;;;;;;;9.80;3.10;;;;;;;9.60;69.49;98560.12;25265;1358;3026082;-73
2021/12/03 09:36:18;;;;;;;6.40;3.00;;;;;;;9.52;69.68;98561.25;24682;1357;3050924;-73
2021/12/03 09:38:48;;;;;;;6.00;2.20;;;;;;;9.47;69.90;98554.06;24465;1357;3026798;-68
2021/12/03 09:41:18;;;;;;;7.20;1.90;;;;;;;9.97;68.45;98553.34;24411;1357;3052557;-72
2021/12/03 09:43:49;;;;;;;7.80;2.20;;;;;;;10.22;67.13;98554.33;24420;1358;3028135;-69
2021/12/03 09:46:23;;;;;;;9.90;2.20;;;;;;;10.15;66.72;98548.20;24440;1355;3027404;-74
2021/12/03 09:51:28;;;;;;;;;;;;;;;9.86;67.42;98541.86;24490;1355;3054193;-74
2021/12/03 09:56:33;;;;;;;11.50;3.20;;;;;;;9.89;67.15;98532.92;24425;1355;3059344;-74
2021/12/03 10:05:52;;;;;;;10.00;2.80;;;;;;;9.58;68.35;98526.35;24478;1358;3054836;-72
2021/12/03 10:13:44;;;;;;;8.50;2.80;;;;;;;9.99;67.20;98502.63;24460;1361;3054947;-69
2021/12/03 10:19:01;;;;;;;6.70;2.50;;;;;;;10.04;67.08;98498.53;24522;1355;3058995;-72
2021/12/03 10:24:35;;;;;;;14.50;3.30;;;;;;;10.12;67.47;98498.48;24481;1355;3056265;-71
2021/12/03 11:45:33;;;;;;;13.00;3.30;;;;;;;11.72;67.51;98421.11;24465;1362;3069614;-67
2021/12/03 14:00:21;;;;;;;9.90;3.20;;;;;;;10.22;76.59;98404.48;24465;1355;3051470;-72
2021/12/03 14:07:15;;;;;;;12.20;3.80;;;;;;;10.71;74.88;98402.88;19524;1363;3078197;-71
2021/12/03 14:55:41;;;;;;;10.00;3.80;;;;;;;10.39;75.87;98410.26;24386;1363;3055448;-71
2021/12/03 14:58:19;;;;;;;8.10;3.50;;;;;;;10.19;76.61;98407.39;24436;1362;3026560;-71
2021/12/03 15:00:54;;;;;;;9.40;3.70;;;;;;;10.15;76.84;98397.67;24419;1355;3056736;-69
2021/12/03 15:03:40;;;;;;;9.50;4.20;;;;;;;10.00;77.24;98398.95;24467;1355;3049522;-75
2021/12/03 15:25:03;;;;;;;10.00;4.20;;;;;;;9.85;78.90;98411.13;24418;1362;3049522;-64
2021/12/03 15:33:04;;;;;;;10.70;4.90;;;;;;;9.54;79.88;98419.84;24420;1359;3027158;-69
2021/12/03 15:51:48;;;;;;;13.90;4.00;;;;;;;9.90;79.01;98411.27;24468;1355;3068339;-73
2021/12/03 16:13:32;;;;;;;9.70;4.30;;;;;;;9.66;79.96;98392.77;24398;1352;3048372;-72
2021/12/03 16:54:16;;;;;;;9.00;5.10;;;;;;;9.04;82.21;98410.51;24470;1360;3054689;-72
2021/12/03 16:56:53;;;;;;;10.30;4.30;;;;;;;8.94;82.79;98424.80;24412;1357;3068731;-72
2021/12/03 16:59:24;;;;;;;10.80;4.70;;;;;;;9.24;81.85;98422.20;24426;1363;3048937;-69
2021/12/03 17:02:05;;;;;;;12.90;5.10;;;;;;;9.41;80.77;98428.16;24425;1357;3027600;-71
2021/12/03 17:29:05;;;;;;;15.00;5.40;;;;;;;9.65;80.37;98433.05;24427;1355;3059624;-68
2021/12/03 17:32:19;;;;;;;;;;;;;;;9.63;80.12;98429.36;24439;1360;3052975;-68
2021/12/03 17:56:05;;;;;;;16.60;6.10;;;;;;;9.68;80.64;98458.88;24480;1359;3028986;-73
2021/12/03 17:58:41;;;;;;;17.00;5.80;;;;;;;9.57;80.99;98464.95;24451;1352;3049218;-71
2021/12/03 18:01:17;;;;;;;19.60;7.00;;;;;;;9.41;81.69;98459.77;24468;1355;3054795;-69
2021/12/03 18:03:59;;;;;;;13.00;4.90;;;;;;;9.27;82.50;98466.33;24407;1355;3052218;-68
2021/12/03 18:55:56;;;;;;;14.00;5.50;;;;;;;10.20;79.52;98477.80;24428;1362;3027004;-71
2021/12/03 18:58:27;;;;;;;16.40;4.20;;;;;;;9.98;80.56;98485.52;24432;1357;3048818;-71
2021/12/03 19:00:57;;;;;;;13.20;5.00;;;;;;;10.47;79.38;98479.81;24425;1357;3028807;-71
2021/12/03 19:03:48;;;;;;;18.00;5.50;;;;;;;10.62;78.26;98487.28;24438;1358;3026439;-70
2021/12/03 19:06:26;;;;;;;17.80;5.00;;;;;;;10.37;79.16;98484.77;24393;1354;3056140;-71
2021/12/03 19:09:06;;;;;;;14.30;4.80;;;;;;;10.12;80.04;98486.98;24424;1355;3050055;-72
2021/12/03 19:11:39;;;;;;;14.90;4.40;;;;;;;9.99;80.75;98499.27;24421;1357;3053304;-71
2021/12/03 19:14:08;;;;;;;13.10;4.30;;;;;;;10.17;80.32;98497.13;24441;1357;3026946;-69
2021/12/03 19:16:37;;;;;;;19.70;4.50;;;;;;;10.43;79.34;98499.92;24387;1360;3027162;-68
2021/12/03 19:19:09;;;;;;;13.20;5.80;;;;;;;10.61;78.50;98510.11;24426;1357;3026206;-69
2021/12/03 19:21:39;;;;;;;19.40;5.30;;;;;;;10.57;78.47;98506.77;24475;1363;3054680;-66
2021/12/03 19:24:09;;;;;;;14.00;5.20;;;;;;;10.41;78.87;98514.92;24364;1357;3026245;-73
2021/12/03 19:26:45;;;;;;;10.90;4.10;;;;;;;10.19;79.95;98522.65;24447;1357;3029325;-70
2021/12/03 19:29:17;;;;;;;12.60;3.90;;;;;;;10.47;79.26;98513.46;24426;1357;3054078;-70
2021/12/03 19:31:48;;;;;;;12.30;4.40;;;;;;;10.56;78.63;98521.89;24493;1361;3028452;-69
2021/12/03 19:34:23;;;;;;;17.50;5.40;;;;;;;10.72;77.99;98511.39;24434;1357;3028917;-75
2021/12/03 19:36:52;;;;;;;20.90;5.90;;;;;;;10.29;79.20;98518.61;24444;1357;3050957;-73
2021/12/03 19:39:24;;;;;;;11.70;3.30;;;;;;;10.19;79.79;98510.95;24411;1357;3027074;-66
2021/12/03 19:42:13;;;;;;;13.50;4.60;;;;;;;10.47;79.11;98515.35;24390;1353;3029760;-72
2021/12/03 19:47:13;;;;;;;16.60;5.80;;;;;;;10.34;78.89;98511.79;24396;1360;3026534;-73